sensor_id;sensor_type;location;lat;lon;timestamp;pressure;altitude;pressure_sealevel;temperature;humidity
70930;BME280;58588;48.102;19.682;2023-03-31T00:02:18;99043.34;;;7.63;100.00
70930;BME280;58588;48.102;19.682;2023-03-31T00:05:23;99045.34;;;7.61;100.00
70930;BME280;58588;48.102;19.682;2023-03-31T00:08:26;99046.84;;;7.63;100.00
70930;BME280;58588;48.102;19.682;2023-03-31T00:11:29;99045.34;;;7.61;100.00
70930;BME280;58588;48.102;19.682;2023-03-31T00:14:31;99043.38;;;7.55;100.00
70930;BME280;58588;48.102;19.682;2023-03-31T00:17:33;99023.56;;;7.56;100.00
70930;BME280;58588;48.102;19.682;2023-03-31T00:20:37;99011.59;;;7.43;100.00
70930;BME280;58588;48.102;19.682;2023-03-31T00:23:39;99029.38;;;7.44;100.00
70930;BME280;58588;48.102;19.682;2023-03-31T00:26:41;99025.56;;;7.39;100.00
70930;BME280;58588;48.102;19.682;2023-03-31T00:29:44;99019.50;;;7.37;100.00
70930;BME280;58588;48.102;19.682;2023-03-31T00:32:46;99022.88;;;7.39;100.00
70930;BME280;58588;48.102;19.682;2023-03-31T00:35:51;99015.53;;;7.33;100.00
70930;BME280;58588;48.102;19.682;2023-03-31T00:38:56;99019.75;;;7.27;100.00
70930;BME280;58588;48.102;19.682;2023-03-31T00:42:01;99001.03;;;7.19;100.00
70930;BME280;58588;48.102;19.682;2023-03-31T00:45:27;98992.53;;;7.15;100.00
70930;BME280;58588;48.102;19.682;2023-03-31T00:48:30;98990.97;;;7.21;100.00
70930;BME280;58588;48.102;19.682;2023-03-31T00:51:33;98977.03;;;7.25;100.00
70930;BME280;58588;48.102;19.682;2023-03-31T00:54:37;98979.25;;;7.22;100.00
70930;BME280;58588;48.102;19.682;2023-03-31T00:57:40;98966.06;;;7.12;100.00
70930;BME280;58588;48.102;19.682;2023-03-31T01:00:43;98967.06;;;7.11;100.00
70930;BME280;58588;48.102;19.682;2023-03-31T01:03:46;98951.50;;;7.07;100.00
70930;BME280;58588;48.102;19.682;2023-03-31T01:06:55;98960.34;;;7.15;100.00
70930;BME280;58588;48.102;19.682;2023-03-31T01:10:01;98966.84;;;7.21;100.00
70930;BME280;58588;48.102;19.682;2023-03-31T01:13:04;98961.31;;;7.22;100.00
70930;BME280;58588;48.102;19.682;2023-03-31T01:16:06;98969.66;;;7.28;100.00
70930;BME280;58588;48.102;19.682;2023-03-31T01:19:17;98974.22;;;7.19;100.00
70930;BME280;58588;48.102;19.682;2023-03-31T01:22:46;98980.41;;;7.19;100.00
70930;BME280;58588;48.102;19.682;2023-03-31T01:29:43;98976.56;;;7.22;100.00
70930;BME280;58588;48.102;19.682;2023-03-31T01:33:19;98983.78;;;7.21;100.00
70930;BME280;58588;48.102;19.682;2023-03-31T01:36:48;98981.28;;;7.20;100.00
70930;BME280;58588;48.102;19.682;2023-03-31T01:40:26;98972.84;;;7.23;100.00
70930;BME280;58588;48.102;19.682;2023-03-31T01:43:36;98970.69;;;7.18;100.00
70930;BME280;58588;48.102;19.682;2023-03-31T01:46:48;98976.03;;;7.27;100.00
70930;BME280;58588;48.102;19.682;2023-03-31T01:49:57;98967.69;;;7.21;100.00
70930;BME280;58588;48.102;19.682;2023-03-31T01:53:04;98964.47;;;7.26;100.00
70930;BME280;58588;48.102;19.682;2023-03-31T01:56:14;98954.09;;;7.23;100.00
70930;BME280;58588;48.102;19.682;2023-03-31T01:59:22;98951.81;;;7.12;100.00
70930;BME280;58588;48.102;19.682;2023-03-31T02:02:31;98958.38;;;7.09;100.00
70930;BME280;58588;48.102;19.682;2023-03-31T02:05:37;98954.56;;;7.04;100.00
70930;BME280;58588;48.102;19.682;2023-03-31T02:08:44;98950.88;;;7.05;100.00
70930;BME280;58588;48.102;19.682;2023-03-31T02:11:50;98946.41;;;6.97;100.00
70930;BME280;58588;48.102;19.682;2023-03-31T02:14:54;98949.59;;;6.92;100.00
70930;BME280;58588;48.102;19.682;2023-03-31T02:17:59;98954.59;;;6.95;100.00
70930;BME280;58588;48.102;19.682;2023-03-31T02:21:06;98956.56;;;7.02;100.00
70930;BME280;58588;48.102;19.682;2023-03-31T02:24:10;98964.91;;;7.07;100.00
70930;BME280;58588;48.102;19.682;2023-03-31T02:27:20;98974.53;;;6.93;100.00
70930;BME280;58588;48.102;19.682;2023-03-31T02:30:26;98972.69;;;6.93;100.00
70930;BME280;58588;48.102;19.682;2023-03-31T02:33:29;98960.81;;;6.96;100.00
70930;BME280;58588;48.102;19.682;2023-03-31T02:36:32;98937.69;;;6.95;100.00
70930;BME280;58588;48.102;19.682;2023-03-31T02:39:36;98928.34;;;6.91;100.00
70930;BME280;58588;48.102;19.682;2023-03-31T02:42:41;98933.81;;;6.97;100.00
70930;BME280;58588;48.102;19.682;2023-03-31T02:45:45;98948.56;;;6.93;100.00
70930;BME280;58588;48.102;19.682;2023-03-31T02:48:52;98947.09;;;6.91;100.00
70930;BME280;58588;48.102;19.682;2023-03-31T02:55:37;98953.16;;;6.85;100.00
70930;BME280;58588;48.102;19.682;2023-03-31T02:58:54;98950.25;;;6.94;100.00
70930;BME280;58588;48.102;19.682;2023-03-31T03:02:09;98944.41;;;6.91;100.00
70930;BME280;58588;48.102;19.682;2023-03-31T03:05:27;98951.63;;;6.90;100.00
70930;BME280;58588;48.102;19.682;2023-03-31T03:08:45;98951.25;;;6.93;100.00
70930;BME280;58588;48.102;19.682;2023-03-31T03:12:04;98950.13;;;6.88;100.00
70930;BME280;58588;48.102;19.682;2023-03-31T03:15:10;98948.31;;;6.80;100.00
70930;BME280;58588;48.102;19.682;2023-03-31T03:18:14;98956.31;;;6.88;100.00
70930;BME280;58588;48.102;19.682;2023-03-31T03:21:16;98965.31;;;6.95;100.00
70930;BME280;58588;48.102;19.682;2023-03-31T03:24:18;98964.69;;;7.16;100.00
70930;BME280;58588;48.102;19.682;2023-03-31T03:27:22;98959.16;;;7.18;100.00
70930;BME280;58588;48.102;19.682;2023-03-31T03:30:25;98954.94;;;7.23;100.00
70930;BME280;58588;48.102;19.682;2023-03-31T03:33:27;98960.06;;;7.33;100.00
70930;BME280;58588;48.102;19.682;2023-03-31T03:36:29;98953.88;;;7.33;100.00
70930;BME280;58588;48.102;19.682;2023-03-31T03:39:32;98955.34;;;7.35;100.00
70930;BME280;58588;48.102;19.682;2023-03-31T03:42:34;98953.03;;;7.32;100.00
70930;BME280;58588;48.102;19.682;2023-03-31T03:45:39;98944.31;;;7.30;100.00
70930;BME280;58588;48.102;19.682;2023-03-31T03:48:41;98942.66;;;7.29;100.00
70930;BME280;58588;48.102;19.682;2023-03-31T03:51:43;98947.28;;;7.12;100.00
70930;BME280;58588;48.102;19.682;2023-03-31T03:54:45;98959.03;;;7.11;100.00
70930;BME280;58588;48.102;19.682;2023-03-31T03:57:47;98960.38;;;7.07;100.00
70930;BME280;58588;48.102;19.682;2023-03-31T04:00:50;98953.09;;;6.93;100.00
70930;BME280;58588;48.102;19.682;2023-03-31T04:03:53;98940.47;;;6.79;100.00
70930;BME280;58588;48.102;19.682;2023-03-31T04:06:55;98938.63;;;6.71;100.00
70930;BME280;58588;48.102;19.682;2023-03-31T04:09:57;98935.50;;;6.67;100.00
70930;BME280;58588;48.102;19.682;2023-03-31T04:12:59;98935.75;;;6.81;100.00
70930;BME280;58588;48.102;19.682;2023-03-31T04:16:02;98937.41;;;6.82;100.00
70930;BME280;58588;48.102;19.682;2023-03-31T04:19:05;98933.22;;;6.87;100.00
70930;BME280;58588;48.102;19.682;2023-03-31T04:22:08;98925.81;;;6.89;100.00
70930;BME280;58588;48.102;19.682;2023-03-31T04:25:12;98935.97;;;7.02;100.00
70930;BME280;58588;48.102;19.682;2023-03-31T04:28:15;98943.31;;;7.08;100.00
70930;BME280;58588;48.102;19.682;2023-03-31T04:31:19;98938.59;;;7.10;100.00
70930;BME280;58588;48.102;19.682;2023-03-31T04:34:25;98949.81;;;7.14;100.00
70930;BME280;58588;48.102;19.682;2023-03-31T04:37:34;98959.25;;;7.02;100.00
70930;BME280;58588;48.102;19.682;2023-03-31T04:40:38;98960.25;;;7.01;100.00
70930;BME280;58588;48.102;19.682;2023-03-31T04:43:41;98955.69;;;7.09;100.00
70930;BME280;58588;48.102;19.682;2023-03-31T04:46:44;98960.03;;;7.10;100.00
70930;BME280;58588;48.102;19.682;2023-03-31T04:49:46;98962.66;;;7.18;100.00
70930;BME280;58588;48.102;19.682;2023-03-31T04:52:48;98962.13;;;7.23;100.00
70930;BME280;58588;48.102;19.682;2023-03-31T04:55:50;98957.00;;;7.36;100.00
70930;BME280;58588;48.102;19.682;2023-03-31T04:58:53;98960.53;;;7.37;100.00
70930;BME280;58588;48.102;19.682;2023-03-31T05:01:56;98969.19;;;7.47;100.00
70930;BME280;58588;48.102;19.682;2023-03-31T05:04:58;98963.09;;;7.53;100.00
70930;BME280;58588;48.102;19.682;2023-03-31T05:08:00;98965.88;;;7.60;100.00
70930;BME280;58588;48.102;19.682;2023-03-31T05:11:02;98961.66;;;7.65;100.00
70930;BME280;58588;48.102;19.682;2023-03-31T05:14:05;98958.66;;;7.83;100.00
70930;BME280;58588;48.102;19.682;2023-03-31T05:17:09;98956.16;;;7.82;100.00
70930;BME280;58588;48.102;19.682;2023-03-31T05:20:11;98960.91;;;7.94;100.00
70930;BME280;58588;48.102;19.682;2023-03-31T05:23:14;98970.28;;;7.98;100.00
70930;BME280;58588;48.102;19.682;2023-03-31T05:26:16;98961.84;;;8.01;100.00
70930;BME280;58588;48.102;19.682;2023-03-31T05:29:18;98967.69;;;8.05;100.00
70930;BME280;58588;48.102;19.682;2023-03-31T05:32:22;98966.47;;;8.08;100.00
70930;BME280;58588;48.102;19.682;2023-03-31T05:35:24;98964.28;;;8.26;100.00
70930;BME280;58588;48.102;19.682;2023-03-31T05:38:27;98954.66;;;8.31;100.00
70930;BME280;58588;48.102;19.682;2023-03-31T05:41:34;98961.44;;;8.42;100.00
70930;BME280;58588;48.102;19.682;2023-03-31T05:44:36;98961.69;;;8.32;100.00
70930;BME280;58588;48.102;19.682;2023-03-31T05:47:39;98964.69;;;8.52;100.00
70930;BME280;58588;48.102;19.682;2023-03-31T05:50:41;98955.66;;;8.30;100.00
70930;BME280;58588;48.102;19.682;2023-03-31T05:53:43;98950.78;;;8.34;100.00
70930;BME280;58588;48.102;19.682;2023-03-31T05:56:45;98956.63;;;8.52;100.00
70930;BME280;58588;48.102;19.682;2023-03-31T05:59:47;98946.56;;;8.40;100.00
70930;BME280;58588;48.102;19.682;2023-03-31T06:02:51;98945.97;;;8.59;100.00
70930;BME280;58588;48.102;19.682;2023-03-31T06:05:53;98944.69;;;8.55;100.00
70930;BME280;58588;48.102;19.682;2023-03-31T06:08:55;98949.38;;;8.82;100.00
70930;BME280;58588;48.102;19.682;2023-03-31T06:11:57;98933.69;;;8.86;100.00
70930;BME280;58588;48.102;19.682;2023-03-31T06:14:59;98938.34;;;9.14;100.00
70930;BME280;58588;48.102;19.682;2023-03-31T06:18:03;98928.94;;;9.03;100.00
70930;BME280;58588;48.102;19.682;2023-03-31T06:21:07;98937.19;;;9.23;100.00
70930;BME280;58588;48.102;19.682;2023-03-31T06:24:11;98934.38;;;9.09;100.00
70930;BME280;58588;48.102;19.682;2023-03-31T06:27:13;98931.84;;;9.44;100.00
70930;BME280;58588;48.102;19.682;2023-03-31T06:30:16;98928.50;;;9.63;100.00
70930;BME280;58588;48.102;19.682;2023-03-31T06:33:19;98934.84;;;9.56;100.00
70930;BME280;58588;48.102;19.682;2023-03-31T06:36:21;98935.28;;;9.38;100.00
70930;BME280;58588;48.102;19.682;2023-03-31T06:39:23;98933.03;;;9.63;100.00
70930;BME280;58588;48.102;19.682;2023-03-31T06:42:25;98924.22;;;9.26;100.00
70930;BME280;58588;48.102;19.682;2023-03-31T06:45:27;98937.47;;;9.28;100.00
70930;BME280;58588;48.102;19.682;2023-03-31T06:48:31;98945.22;;;9.37;100.00
70930;BME280;58588;48.102;19.682;2023-03-31T06:51:33;98936.00;;;9.25;100.00
70930;BME280;58588;48.102;19.682;2023-03-31T06:54:35;98942.13;;;9.41;100.00
70930;BME280;58588;48.102;19.682;2023-03-31T06:57:37;98932.22;;;9.41;100.00
70930;BME280;58588;48.102;19.682;2023-03-31T07:00:39;98927.41;;;9.58;100.00
70930;BME280;58588;48.102;19.682;2023-03-31T07:03:43;98924.69;;;9.30;100.00
70930;BME280;58588;48.102;19.682;2023-03-31T07:06:44;98920.94;;;9.74;100.00
70930;BME280;58588;48.102;19.682;2023-03-31T07:09:46;98925.69;;;9.72;100.00
70930;BME280;58588;48.102;19.682;2023-03-31T07:12:49;98918.13;;;9.88;100.00
70930;BME280;58588;48.102;19.682;2023-03-31T07:15:51;98919.06;;;10.02;100.00
70930;BME280;58588;48.102;19.682;2023-03-31T07:18:54;98913.06;;;10.07;100.00
70930;BME280;58588;48.102;19.682;2023-03-31T07:21:58;98912.47;;;10.05;100.00
70930;BME280;58588;48.102;19.682;2023-03-31T07:25:01;98926.66;;;10.20;100.00
70930;BME280;58588;48.102;19.682;2023-03-31T07:28:03;98906.53;;;10.16;100.00
70930;BME280;58588;48.102;19.682;2023-03-31T07:31:10;98910.16;;;10.71;100.00
70930;BME280;58588;48.102;19.682;2023-03-31T07:34:13;98910.41;;;10.83;100.00
70930;BME280;58588;48.102;19.682;2023-03-31T07:37:15;98900.72;;;11.02;100.00
70930;BME280;58588;48.102;19.682;2023-03-31T07:40:19;98902.47;;;11.42;100.00
70930;BME280;58588;48.102;19.682;2023-03-31T07:43:22;98902.44;;;11.29;100.00
70930;BME280;58588;48.102;19.682;2023-03-31T07:46:25;98899.16;;;11.53;100.00
70930;BME280;58588;48.102;19.682;2023-03-31T07:49:29;98900.59;;;11.43;100.00
70930;BME280;58588;48.102;19.682;2023-03-31T07:52:32;98903.72;;;11.60;100.00
70930;BME280;58588;48.102;19.682;2023-03-31T07:55:34;98899.56;;;11.57;100.00
70930;BME280;58588;48.102;19.682;2023-03-31T07:58:36;98885.88;;;11.52;100.00
70930;BME280;58588;48.102;19.682;2023-03-31T08:01:38;98889.78;;;11.63;100.00
70930;BME280;58588;48.102;19.682;2023-03-31T08:04:41;98882.13;;;11.93;100.00
70930;BME280;58588;48.102;19.682;2023-03-31T08:07:45;98877.09;;;12.23;100.00
70930;BME280;58588;48.102;19.682;2023-03-31T08:10:48;98888.78;;;11.90;100.00
70930;BME280;58588;48.102;19.682;2023-03-31T08:13:50;98866.31;;;12.03;100.00
70930;BME280;58588;48.102;19.682;2023-03-31T08:16:52;98854.47;;;12.11;100.00
70930;BME280;58588;48.102;19.682;2023-03-31T08:19:56;98857.94;;;12.38;100.00
70930;BME280;58588;48.102;19.682;2023-03-31T08:22:58;98842.97;;;12.80;100.00
70930;BME280;58588;48.102;19.682;2023-03-31T08:26:08;98848.81;;;12.83;100.00
70930;BME280;58588;48.102;19.682;2023-03-31T08:29:10;98836.09;;;13.16;100.00
70930;BME280;58588;48.102;19.682;2023-03-31T08:32:12;98835.09;;;13.10;100.00
70930;BME280;58588;48.102;19.682;2023-03-31T08:35:16;98829.38;;;13.25;100.00
70930;BME280;58588;48.102;19.682;2023-03-31T08:38:18;98819.50;;;13.44;100.00
70930;BME280;58588;48.102;19.682;2023-03-31T08:41:35;98814.66;;;13.71;100.00
70930;BME280;58588;48.102;19.682;2023-03-31T08:44:41;98801.97;;;14.08;100.00
70930;BME280;58588;48.102;19.682;2023-03-31T08:47:47;98795.94;;;14.24;100.00
70930;BME280;58588;48.102;19.682;2023-03-31T08:50:55;98786.72;;;14.43;100.00
70930;BME280;58588;48.102;19.682;2023-03-31T08:54:01;98785.03;;;14.79;100.00
70930;BME280;58588;48.102;19.682;2023-03-31T08:57:09;98782.50;;;14.66;100.00
70930;BME280;58588;48.102;19.682;2023-03-31T09:00:15;98774.19;;;14.79;100.00
70930;BME280;58588;48.102;19.682;2023-03-31T09:03:25;98768.47;;;14.69;100.00
70930;BME280;58588;48.102;19.682;2023-03-31T09:06:35;98770.25;;;14.63;100.00
70930;BME280;58588;48.102;19.682;2023-03-31T09:09:43;98766.25;;;15.08;100.00
70930;BME280;58588;48.102;19.682;2023-03-31T09:12:52;98745.13;;;15.33;100.00
70930;BME280;58588;48.102;19.682;2023-03-31T09:16:00;98737.34;;;15.25;100.00
70930;BME280;58588;48.102;19.682;2023-03-31T09:19:12;98725.31;;;15.56;100.00
70930;BME280;58588;48.102;19.682;2023-03-31T09:22:22;98729.13;;;16.19;100.00
70930;BME280;58588;48.102;19.682;2023-03-31T09:25:26;98729.00;;;15.73;94.73
70930;BME280;58588;48.102;19.682;2023-03-31T09:28:34;98723.63;;;16.02;100.00
70930;BME280;58588;48.102;19.682;2023-03-31T09:31:38;98714.38;;;16.15;97.82
70930;BME280;58588;48.102;19.682;2023-03-31T09:34:42;98709.22;;;16.30;92.61
70930;BME280;58588;48.102;19.682;2023-03-31T09:37:47;98706.72;;;16.00;90.27
70930;BME280;58588;48.102;19.682;2023-03-31T09:40:49;98705.06;;;16.39;90.18
70930;BME280;58588;48.102;19.682;2023-03-31T09:43:51;98702.53;;;16.49;87.84
70930;BME280;58588;48.102;19.682;2023-03-31T09:46:54;98696.44;;;17.04;89.66
70930;BME280;58588;48.102;19.682;2023-03-31T09:49:56;98695.84;;;17.19;84.89
70930;BME280;58588;48.102;19.682;2023-03-31T09:53:01;98696.75;;;17.42;79.93
70930;BME280;58588;48.102;19.682;2023-03-31T09:56:07;98696.47;;;17.60;81.34
70930;BME280;58588;48.102;19.682;2023-03-31T09:59:14;98690.19;;;17.98;84.88
70930;BME280;58588;48.102;19.682;2023-03-31T10:02:35;98669.59;;;17.69;74.00
70930;BME280;58588;48.102;19.682;2023-03-31T10:05:49;98661.63;;;17.45;73.70
70930;BME280;58588;48.102;19.682;2023-03-31T10:08:55;98656.78;;;17.69;74.45
70930;BME280;58588;48.102;19.682;2023-03-31T10:12:04;98662.66;;;17.78;77.17
70930;BME280;58588;48.102;19.682;2023-03-31T10:15:20;98664.41;;;18.33;71.43
70930;BME280;58588;48.102;19.682;2023-03-31T10:18:32;98665.75;;;18.84;70.06
70930;BME280;58588;48.102;19.682;2023-03-31T10:21:36;98658.97;;;18.60;65.72
70930;BME280;58588;48.102;19.682;2023-03-31T10:24:43;98650.34;;;18.46;66.71
70930;BME280;58588;48.102;19.682;2023-03-31T10:27:47;98640.63;;;18.55;68.49
70930;BME280;58588;48.102;19.682;2023-03-31T10:30:53;98645.59;;;18.90;65.62
70930;BME280;58588;48.102;19.682;2023-03-31T10:33:57;98641.47;;;17.85;63.79
70930;BME280;58588;48.102;19.682;2023-03-31T10:37:00;98634.34;;;17.62;65.43
70930;BME280;58588;48.102;19.682;2023-03-31T10:40:13;98625.81;;;18.51;64.82
70930;BME280;58588;48.102;19.682;2023-03-31T10:43:17;98615.66;;;19.06;62.38
70930;BME280;58588;48.102;19.682;2023-03-31T10:46:39;98624.22;;;18.82;62.82
70930;BME280;58588;48.102;19.682;2023-03-31T10:49:42;98619.53;;;18.51;65.15
70930;BME280;58588;48.102;19.682;2023-03-31T10:52:47;98614.13;;;18.29;63.49
70930;BME280;58588;48.102;19.682;2023-03-31T10:55:58;98622.91;;;18.31;61.91
70930;BME280;58588;48.102;19.682;2023-03-31T10:59:14;98616.50;;;18.74;62.64
70930;BME280;58588;48.102;19.682;2023-03-31T11:02:50;98615.94;;;18.45;63.85
70930;BME280;58588;48.102;19.682;2023-03-31T11:06:03;98612.28;;;18.34;63.67
70930;BME280;58588;48.102;19.682;2023-03-31T11:09:28;98607.75;;;18.72;63.80
70930;BME280;58588;48.102;19.682;2023-03-31T11:12:39;98606.88;;;18.39;61.04
70930;BME280;58588;48.102;19.682;2023-03-31T11:15:52;98604.22;;;18.71;64.66
70930;BME280;58588;48.102;19.682;2023-03-31T11:19:05;98597.28;;;18.96;60.10
70930;BME280;58588;48.102;19.682;2023-03-31T11:22:13;98590.97;;;19.33;58.49
70930;BME280;58588;48.102;19.682;2023-03-31T11:25:31;98589.25;;;19.21;61.75
70930;BME280;58588;48.102;19.682;2023-03-31T11:28:44;98585.06;;;19.56;59.90
70930;BME280;58588;48.102;19.682;2023-03-31T11:31:56;98567.09;;;19.18;58.86
70930;BME280;58588;48.102;19.682;2023-03-31T11:35:12;98558.22;;;19.48;57.36
70930;BME280;58588;48.102;19.682;2023-03-31T11:38:31;98555.72;;;20.19;55.37
70930;BME280;58588;48.102;19.682;2023-03-31T11:41:38;98547.03;;;19.55;54.82
70930;BME280;58588;48.102;19.682;2023-03-31T11:44:47;98540.13;;;18.84;56.77
70930;BME280;58588;48.102;19.682;2023-03-31T11:47:55;98539.34;;;18.57;57.57
70930;BME280;58588;48.102;19.682;2023-03-31T11:51:04;98533.72;;;18.68;61.15
70930;BME280;58588;48.102;19.682;2023-03-31T11:54:09;98515.97;;;18.34;58.69
70930;BME280;58588;48.102;19.682;2023-03-31T11:57:19;98513.69;;;18.90;55.61
70930;BME280;58588;48.102;19.682;2023-03-31T12:00:27;98495.91;;;19.55;57.17
70930;BME280;58588;48.102;19.682;2023-03-31T12:03:40;98485.53;;;19.52;55.29
70930;BME280;58588;48.102;19.682;2023-03-31T12:06:46;98474.44;;;20.30;55.42
70930;BME280;58588;48.102;19.682;2023-03-31T12:09:53;98466.50;;;20.69;55.17
70930;BME280;58588;48.102;19.682;2023-03-31T12:13:26;98463.78;;;21.49;51.01
70930;BME280;58588;48.102;19.682;2023-03-31T12:16:37;98468.28;;;21.15;48.28
70930;BME280;58588;48.102;19.682;2023-03-31T12:19:45;98459.88;;;20.91;49.22
70930;BME280;58588;48.102;19.682;2023-03-31T12:22:49;98451.31;;;21.13;48.25
70930;BME280;58588;48.102;19.682;2023-03-31T12:25:56;98460.53;;;21.42;49.92
70930;BME280;58588;48.102;19.682;2023-03-31T12:29:11;98468.78;;;21.37;54.42
70930;BME280;58588;48.102;19.682;2023-03-31T12:32:21;98460.22;;;20.48;51.27
70930;BME280;58588;48.102;19.682;2023-03-31T12:35:25;98451.69;;;20.45;50.37
70930;BME280;58588;48.102;19.682;2023-03-31T12:38:36;98450.66;;;20.46;52.77
70930;BME280;58588;48.102;19.682;2023-03-31T12:41:46;98442.44;;;20.05;52.28
70930;BME280;58588;48.102;19.682;2023-03-31T12:45:01;98435.88;;;20.21;55.72
70930;BME280;58588;48.102;19.682;2023-03-31T12:48:18;98430.66;;;20.50;52.07
70930;BME280;58588;48.102;19.682;2023-03-31T12:51:40;98420.25;;;20.37;51.00
70930;BME280;58588;48.102;19.682;2023-03-31T12:55:00;98415.81;;;20.77;53.03
70930;BME280;58588;48.102;19.682;2023-03-31T12:58:41;98402.47;;;20.29;51.00
70930;BME280;58588;48.102;19.682;2023-03-31T13:02:16;98399.47;;;20.05;52.39
70930;BME280;58588;48.102;19.682;2023-03-31T13:05:47;98395.28;;;19.47;53.44
70930;BME280;58588;48.102;19.682;2023-03-31T13:08:52;98383.19;;;19.12;53.76
70930;BME280;58588;48.102;19.682;2023-03-31T13:11:55;98376.19;;;19.57;53.59
70930;BME280;58588;48.102;19.682;2023-03-31T13:14:57;98362.47;;;19.37;57.33
70930;BME280;58588;48.102;19.682;2023-03-31T13:18:01;98355.91;;;19.28;57.35
70930;BME280;58588;48.102;19.682;2023-03-31T13:21:05;98349.38;;;19.44;60.89
70930;BME280;58588;48.102;19.682;2023-03-31T13:24:08;98339.59;;;19.63;59.25
70930;BME280;58588;48.102;19.682;2023-03-31T13:27:28;98328.56;;;20.29;57.58
70930;BME280;58588;48.102;19.682;2023-03-31T13:30:51;98317.47;;;21.25;55.53
70930;BME280;58588;48.102;19.682;2023-03-31T13:33:55;98322.22;;;20.44;56.75
70930;BME280;58588;48.102;19.682;2023-03-31T13:37:11;98318.53;;;19.74;50.30
70930;BME280;58588;48.102;19.682;2023-03-31T13:40:27;98315.19;;;19.41;51.43
70930;BME280;58588;48.102;19.682;2023-03-31T13:43:53;98316.31;;;19.61;50.85
70930;BME280;58588;48.102;19.682;2023-03-31T13:47:18;98309.22;;;19.49;51.62
70930;BME280;58588;48.102;19.682;2023-03-31T13:50:45;98297.38;;;18.98;51.91
70930;BME280;58588;48.102;19.682;2023-03-31T13:54:29;98295.44;;;18.93;52.40
70930;BME280;58588;48.102;19.682;2023-03-31T13:57:48;98279.56;;;18.75;52.82
70930;BME280;58588;48.102;19.682;2023-03-31T14:01:04;98276.44;;;18.46;54.53
70930;BME280;58588;48.102;19.682;2023-03-31T14:04:21;98259.97;;;18.21;53.26
70930;BME280;58588;48.102;19.682;2023-03-31T14:07:33;98246.16;;;18.48;54.13
70930;BME280;58588;48.102;19.682;2023-03-31T14:10:41;98239.16;;;18.67;55.23
70930;BME280;58588;48.102;19.682;2023-03-31T14:13:43;98226.88;;;18.80;53.67
70930;BME280;58588;48.102;19.682;2023-03-31T14:16:48;98230.22;;;19.07;53.63
70930;BME280;58588;48.102;19.682;2023-03-31T14:20:14;98231.19;;;18.60;52.20
70930;BME280;58588;48.102;19.682;2023-03-31T14:23:32;98220.53;;;18.54;53.90
70930;BME280;58588;48.102;19.682;2023-03-31T14:26:48;98210.72;;;18.63;53.54
70930;BME280;58588;48.102;19.682;2023-03-31T14:29:58;98208.53;;;18.65;54.66
70930;BME280;58588;48.102;19.682;2023-03-31T14:33:13;98204.16;;;18.54;56.43
70930;BME280;58588;48.102;19.682;2023-03-31T14:36:27;98195.66;;;18.50;54.05
70930;BME280;58588;48.102;19.682;2023-03-31T14:39:39;98189.56;;;18.12;57.62
70930;BME280;58588;48.102;19.682;2023-03-31T14:42:44;98189.53;;;18.07;58.89
70930;BME280;58588;48.102;19.682;2023-03-31T14:45:57;98175.34;;;18.05;56.89
70930;BME280;58588;48.102;19.682;2023-03-31T14:49:05;98170.16;;;18.09;59.95
70930;BME280;58588;48.102;19.682;2023-03-31T14:52:14;98178.69;;;18.28;63.07
70930;BME280;58588;48.102;19.682;2023-03-31T14:55:21;98171.72;;;17.89;62.71
70930;BME280;58588;48.102;19.682;2023-03-31T14:58:27;98174.97;;;17.81;63.77
70930;BME280;58588;48.102;19.682;2023-03-31T15:01:32;98164.47;;;17.63;67.08
70930;BME280;58588;48.102;19.682;2023-03-31T15:04:39;98163.34;;;17.54;67.61
70930;BME280;58588;48.102;19.682;2023-03-31T15:07:47;98167.84;;;17.38;67.29
70930;BME280;58588;48.102;19.682;2023-03-31T15:10:51;98184.78;;;17.08;71.71
70930;BME280;58588;48.102;19.682;2023-03-31T15:13:55;98171.75;;;16.78;81.07
70930;BME280;58588;48.102;19.682;2023-03-31T15:16:58;98159.47;;;16.48;84.81
70930;BME280;58588;48.102;19.682;2023-03-31T15:20:28;98153.38;;;16.63;83.40
70930;BME280;58588;48.102;19.682;2023-03-31T15:23:30;98152.38;;;17.06;84.21
70930;BME280;58588;48.102;19.682;2023-03-31T15:26:35;98148.53;;;17.02;80.94
70930;BME280;58588;48.102;19.682;2023-03-31T15:29:42;98146.63;;;16.98;82.73
70930;BME280;58588;48.102;19.682;2023-03-31T15:32:44;98137.09;;;17.00;79.62
70930;BME280;58588;48.102;19.682;2023-03-31T15:35:46;98131.06;;;16.93;79.12
70930;BME280;58588;48.102;19.682;2023-03-31T15:38:54;98126.94;;;16.85;75.88
70930;BME280;58588;48.102;19.682;2023-03-31T15:41:57;98119.94;;;16.68;75.30
70930;BME280;58588;48.102;19.682;2023-03-31T15:45:43;98126.16;;;16.63;75.99
70930;BME280;58588;48.102;19.682;2023-03-31T15:48:51;98117.47;;;16.66;78.63
70930;BME280;58588;48.102;19.682;2023-03-31T15:51:54;98120.88;;;16.51;77.86
70930;BME280;58588;48.102;19.682;2023-03-31T15:59:02;98109.75;;;16.26;79.28
70930;BME280;58588;48.102;19.682;2023-03-31T16:02:11;98113.53;;;16.25;78.71
70930;BME280;58588;48.102;19.682;2023-03-31T16:05:32;98102.03;;;16.18;80.09
70930;BME280;58588;48.102;19.682;2023-03-31T16:08:42;98104.16;;;16.11;80.46
70930;BME280;58588;48.102;19.682;2023-03-31T16:11:48;98089.31;;;15.96;79.87
70930;BME280;58588;48.102;19.682;2023-03-31T16:14:54;98079.41;;;15.85;78.40
70930;BME280;58588;48.102;19.682;2023-03-31T16:18:03;98079.09;;;15.82;80.24
70930;BME280;58588;48.102;19.682;2023-03-31T16:21:07;98074.88;;;15.69;79.57
70930;BME280;58588;48.102;19.682;2023-03-31T16:24:10;98080.81;;;15.66;79.35
70930;BME280;58588;48.102;19.682;2023-03-31T16:27:12;98082.38;;;15.62;80.58
70930;BME280;58588;48.102;19.682;2023-03-31T16:30:17;98077.38;;;15.53;80.78